Map

Track Data

SID SEASON NUMBER BASIN SUBBASIN NAME ISO_TIME NATURE LAT LON WMO_WIND WMO_PRES WMO_AGENCY TRACK_TYPE DIST2LAND LANDFALL IFLAG USA_AGENCY USA_ATCF_ID USA_LAT USA_LON USA_RECORD USA_STATUS USA_WIND USA_PRES USA_SSHS USA_R34_NE USA_R34_SE USA_R34_SW USA_R34_NW USA_R50_NE USA_R50_SE USA_R50_SW USA_R50_NW USA_R64_NE USA_R64_SE USA_R64_SW USA_R64_NW USA_POCI USA_ROCI USA_RMW USA_EYE TOKYO_LAT TOKYO_LON TOKYO_GRADE TOKYO_WIND TOKYO_PRES TOKYO_R50_DIR TOKYO_R50_LONG TOKYO_R50_SHORT TOKYO_R30_DIR TOKYO_R30_LONG TOKYO_R30_SHORT TOKYO_LAND CMA_LAT CMA_LON CMA_CAT CMA_WIND CMA_PRES HKO_LAT HKO_LON HKO_CAT HKO_WIND HKO_PRES NEWDELHI_LAT NEWDELHI_LON NEWDELHI_GRADE NEWDELHI_WIND NEWDELHI_PRES NEWDELHI_CI NEWDELHI_DP NEWDELHI_POCI REUNION_LAT REUNION_LON REUNION_TYPE REUNION_WIND REUNION_PRES REUNION_TNUM REUNION_CI REUNION_RMW REUNION_R34_NE REUNION_R34_SE REUNION_R34_SW REUNION_R34_NW REUNION_R50_NE REUNION_R50_SE REUNION_R50_SW REUNION_R50_NW REUNION_R64_NE REUNION_R64_SE REUNION_R64_SW REUNION_R64_NW BOM_LAT BOM_LON BOM_TYPE BOM_WIND BOM_PRES BOM_TNUM BOM_CI BOM_RMW BOM_R34_NE BOM_R34_SE BOM_R34_SW BOM_R34_NW BOM_R50_NE BOM_R50_SE BOM_R50_SW BOM_R50_NW BOM_R64_NE BOM_R64_SE BOM_R64_SW BOM_R64_NW BOM_ROCI BOM_POCI BOM_EYE BOM_POS_METHOD BOM_PRES_METHOD NADI_LAT NADI_LON NADI_CAT NADI_WIND NADI_PRES WELLINGTON_LAT WELLINGTON_LON WELLINGTON_WIND WELLINGTON_PRES DS824_LAT DS824_LON DS824_STAGE DS824_WIND DS824_PRES TD9636_LAT TD9636_LON TD9636_STAGE TD9636_WIND TD9636_PRES TD9635_LAT TD9635_LON TD9635_WIND TD9635_PRES TD9635_ROCI NEUMANN_LAT NEUMANN_LON NEUMANN_CLASS NEUMANN_WIND NEUMANN_PRES MLC_LAT MLC_LON MLC_CLASS MLC_WIND MLC_PRES USA_GUST BOM_GUST BOM_GUST_PER REUNION_GUST REUNION_GUST_PER USA_SEAHGT USA_SEARAD_NE USA_SEARAD_SE USA_SEARAD_SW USA_SEARAD_NW STORM_SPEED STORM_DIR
1987249N13297 1987 71 NA CS NOT_NAMED 1987-09-06 00:00:00 TS 12.8000 -63.3000 25 hurdat_atl main 236 236 O_____________ hurdat_atl AL081987 12.8000 -63.3000 TD 25 -1 16 274
1987249N13297 1987 71 NA CS NOT_NAMED 1987-09-06 03:00:00 TS 12.8503 -64.1200 main 257 257 P_____________ AL081987 12.8503 -64.1200 TD 27 -1 17 273
1987249N13297 1987 71 NA CS NOT_NAMED 1987-09-06 06:00:00 TS 12.9000 -65.0000 30 hurdat_atl main 271 257 O_____________ hurdat_atl AL081987 12.9000 -65.0000 TD 30 -1 18 273
1987249N13297 1987 71 NA CS NOT_NAMED 1987-09-06 09:00:00 TS 12.9499 -65.9776 main 257 257 P_____________ AL081987 12.9499 -65.9776 TD 30 -1 20 273
1987249N13297 1987 71 NA CS NOT_NAMED 1987-09-06 12:00:00 TS 13.0000 -67.0000 30 hurdat_atl main 252 199 O_____________ hurdat_atl AL081987 13.0000 -67.0000 TD 30 -1 20 273
1987249N13297 1987 71 NA CS NOT_NAMED 1987-09-06 15:00:00 TS 13.0498 -68.0150 main 199 155 P_____________ AL081987 13.0498 -68.0150 TD 30 -1 20 273
1987249N13297 1987 71 NA CS NOT_NAMED 1987-09-06 18:00:00 TS 13.1000 -69.0000 30 hurdat_atl main 148 111 O_____________ hurdat_atl AL081987 13.1000 -69.0000 TD 30 -1 19 273
1987249N13297 1987 71 NA CS NOT_NAMED 1987-09-06 21:00:00 TS 13.1496 -69.9225 main 111 111 P_____________ AL081987 13.1496 -69.9225 TD 30 -1 18 273
1987249N13297 1987 71 NA CS NOT_NAMED 1987-09-07 00:00:00 TS 13.2000 -70.8000 30 hurdat_atl main 114 89 O_____________ hurdat_atl AL081987 13.2000 -70.8000 TD 30 -1 17 273
1987249N13297 1987 71 NA CS NOT_NAMED 1987-09-07 03:00:00 TS 13.2496 -71.6575 main 89 89 P_____________ AL081987 13.2496 -71.6575 TD 30 -1 17 273
1987249N13297 1987 71 NA CS NOT_NAMED 1987-09-07 06:00:00 TS 13.3000 -72.5000 30 hurdat_atl main 124 124 O_____________ hurdat_atl AL081987 13.3000 -72.5000 TD 30 -1 16 273
1987249N13297 1987 71 NA CS NOT_NAMED 1987-09-07 09:00:00 TS 13.3419 -73.3202 main 171 171 P_____________ AL081987 13.3419 -73.3202 TD 30 -1 17 273
1987249N13297 1987 71 NA CS NOT_NAMED 1987-09-07 12:00:00 TS 13.4000 -74.2000 30 hurdat_atl main 243 243 O_____________ hurdat_atl AL081987 13.4000 -74.2000 TD 30 -1 19 275
1987249N13297 1987 71 NA CS NOT_NAMED 1987-09-07 15:00:00 TS 13.4926 -75.2350 main 279 279 P_____________ AL081987 13.4926 -75.2350 TD 30 -1 21 276
1987249N13297 1987 71 NA CS NOT_NAMED 1987-09-07 18:00:00 TS 13.6000 -76.3000 30 hurdat_atl main 328 328 O_____________ hurdat_atl AL081987 13.6000 -76.3000 TD 30 -1 20 276
1987249N13297 1987 71 NA CS NOT_NAMED 1987-09-07 21:00:00 TS 13.7070 -77.2650 main 390 390 P_____________ AL081987 13.7070 -77.2650 TD 30 -1 19 276
1987249N13297 1987 71 NA CS NOT_NAMED 1987-09-08 00:00:00 TS 13.8000 -78.2000 30 hurdat_atl main 449 444 O_____________ hurdat_atl AL081987 13.8000 -78.2000 TD 30 -1 18 275
1987249N13297 1987 71 NA CS NOT_NAMED 1987-09-08 03:00:00 TS 13.8571 -79.1501 main 433 348 P_____________ AL081987 13.8571 -79.1501 TD 30 -1 18 273
1987249N13297 1987 71 NA CS NOT_NAMED 1987-09-08 06:00:00 TS 13.9000 -80.1000 30 hurdat_atl main 337 239 O_____________ hurdat_atl AL081987 13.9000 -80.1000 TD 30 -1 18 273
1987249N13297 1987 71 NA CS NOT_NAMED 1987-09-08 09:00:00 TS 13.9571 -81.0499 main 239 144 P_____________ AL081987 13.9571 -81.0499 TD 30 -1 18 273
1987249N13297 1987 71 NA CS NOT_NAMED 1987-09-08 12:00:00 TS 14.0000 -82.0000 30 hurdat_atl main 133 46 O_____________ hurdat_atl AL081987 14.0000 -82.0000 TD 30 -1 18 272
1987249N13297 1987 71 NA CS NOT_NAMED 1987-09-08 15:00:00 TS 14.0107 -82.9501 main 39 0 P_____________ AL081987 14.0107 -82.9501 TD -1 18 270
1987249N13297 1987 71 NA NA NOT_NAMED 1987-09-08 18:00:00 TS 14.0000 -83.9000 hurdat_atl main 0 O_____________ hurdat_atl AL081987 14.0000 -83.9000 TD -1 18 269

About IBTrACS Database

This database is a web-friendly format of International Best Track Archive for Climate Stewardship (IBTrACS), a global best track data archive curated by NOAA dating back to 1842.

Updated: 2021-10-08